Time;durP1;ratioP1;P1;durP2;ratioP2;P2;SDS_P1;SDS_P2;PMS_P1;PMS_P2;Temp;Humidity;BMP_temperature;BMP_pressure;BME280_temperature;BME280_humidity;BME280_pressure;Samples;Min_cycle;Max_cycle;Signal;HPM_P1;HPM_P2
2023/03/08 00:01:27;;;;;;;131.82;12.90;;;;;;;;;;5051768;28;20025;-80
2023/03/08 00:03:53;;;;;;;155.45;12.88;;;;;;;;;;5051784;28;20028;-80
2023/03/08 00:06:19;;;;;;;312.15;18.17;;;;;;;;;;5034218;28;20120;-80
2023/03/08 00:08:45;;;;;;;334.17;18.40;;;;;;;;;;5033589;28;20098;-80
2023/03/08 00:11:11;;;;;;;170.98;13.77;;;;;;;;;;5051514;28;20039;-80
2023/03/08 00:13:36;;;;;;;286.05;17.42;;;;;;;;;;5051707;28;20040;-80
2023/03/08 00:16:03;;;;;;;71.20;11.23;;;;;;;;;;5051401;28;20029;-80
2023/03/08 00:18:28;;;;;;;48.78;10.30;;;;;;;;;;5033894;28;20454;-80
2023/03/08 00:20:58;;;;;;;56.60;10.40;;;;;;;;;;5033772;28;20033;-79
2023/03/08 00:23:23;;;;;;;67.95;8.65;;;;;;;;;;5051489;28;20468;-80
2023/03/08 00:25:52;;;;;;;40.97;9.73;;;;;;;;;;5029026;28;20116;-80
2023/03/08 00:28:17;;;;;;;53.10;9.73;;;;;;;;;;5050763;28;20090;-80
2023/03/08 00:30:43;;;;;;;23.23;9.10;;;;;;;;;;5051242;28;20037;-80
2023/03/08 00:33:08;;;;;;;138.82;12.90;;;;;;;;;;5033852;28;20043;-80
2023/03/08 00:35:35;;;;;;;36.67;8.52;;;;;;;;;;5051216;28;20534;-80
2023/03/08 00:38:01;;;;;;;17.52;8.10;;;;;;;;;;5020649;28;20033;-80
2023/03/08 00:40:26;;;;;;;62.35;9.63;;;;;;;;;;5033838;28;20048;-81
2023/03/08 00:42:51;;;;;;;58.55;9.98;;;;;;;;;;5033436;28;20035;-81
2023/03/08 00:45:17;;;;;;;15.65;8.77;;;;;;;;;;5034898;28;20025;-80
2023/03/08 00:47:42;;;;;;;16.55;9.23;;;;;;;;;;5054863;28;20116;-80
2023/03/08 00:50:08;;;;;;;39.40;8.27;;;;;;;;;;5036963;28;20033;-80
2023/03/08 00:52:34;;;;;;;21.67;8.52;;;;;;;;;;5054709;28;20045;-80
2023/03/08 00:55:00;;;;;;;24.95;7.57;;;;;;;;;;5054811;28;20064;-80
2023/03/08 00:57:25;;;;;;;15.57;7.72;;;;;;;;;;5037067;28;20071;-79
2023/03/08 00:59:51;;;;;;;17.63;7.95;;;;;;;;;;5020587;28;20040;-80
2023/03/08 01:02:16;;;;;;;13.57;7.40;;;;;;;;;;5036542;28;20031;-80
2023/03/08 01:04:41;;;;;;;13.57;8.13;;;;;;;;;;5054652;28;20553;-80
2023/03/08 01:07:07;;;;;;;16.10;7.95;;;;;;;;;;5054261;28;20037;-80
2023/03/08 01:09:32;;;;;;;14.27;8.50;;;;;;;;;;5054535;28;20060;-81
2023/03/08 01:11:58;;;;;;;16.48;8.18;;;;;;;;;;5036606;28;20496;-80
2023/03/08 01:14:23;;;;;;;15.60;8.57;;;;;;;;;;5036538;28;20119;-80
2023/03/08 01:16:49;;;;;;;13.48;9.05;;;;;;;;;;5016887;28;20037;-81
2023/03/08 01:19:14;;;;;;;13.57;8.05;;;;;;;;;;5046149;28;20025;-80
2023/03/08 01:21:40;;;;;;;;;;;;;;;;;;5036727;28;20033;-80
2023/03/08 01:24:06;;;;;;;12.85;7.93;;;;;;;;;;5036295;28;20330;-80
2023/03/08 01:26:31;;;;;;;12.88;7.50;;;;;;;;;;5053919;28;20053;-81
2023/03/08 01:28:57;;;;;;;15.68;8.70;;;;;;;;;;5054063;28;20044;-80
2023/03/08 01:31:23;;;;;;;12.95;8.27;;;;;;;;;;5036105;28;20049;-80
2023/03/08 01:33:50;;;;;;;11.05;7.63;;;;;;;;;;5036152;28;20592;-81
2023/03/08 01:36:16;;;;;;;11.48;7.75;;;;;;;;;;5054047;28;20069;-80
2023/03/08 01:38:43;;;;;;;10.40;6.90;;;;;;;;;;5024611;28;20107;-80
2023/03/08 01:41:12;;;;;;;11.38;7.10;;;;;;;;;;5034418;28;20507;-80
2023/03/08 01:43:38;;;;;;;10.00;6.80;;;;;;;;;;5035873;28;20048;-80
2023/03/08 01:46:06;;;;;;;9.82;7.00;;;;;;;;;;5019633;28;20040;-80
2023/03/08 01:48:37;;;;;;;10.73;6.53;;;;;;;;;;5035824;28;20434;-80
2023/03/08 01:51:06;;;;;;;9.93;6.30;;;;;;;;;;5035748;28;20036;-80
2023/03/08 01:53:32;;;;;;;9.40;5.78;;;;;;;;;;5020535;28;20052;-80
2023/03/08 01:55:57;;;;;;;8.63;6.22;;;;;;;;;;5022032;28;20037;-80
2023/03/08 01:58:24;;;;;;;10.93;7.22;;;;;;;;;;5033079;28;20040;-80
2023/03/08 02:00:49;;;;;;;10.27;6.85;;;;;;;;;;5035518;28;20041;-80
2023/03/08 02:03:14;;;;;;;11.63;7.47;;;;;;;;;;5053647;28;20360;-80
2023/03/08 02:05:40;;;;;;;11.13;7.70;;;;;;;;;;5053880;28;20549;-80
2023/03/08 02:08:13;;;;;;;10.18;7.00;;;;;;;;;;5036221;28;20074;-81
2023/03/08 02:10:40;;;;;;;12.57;8.13;;;;;;;;;;5052199;28;20558;-80
2023/03/08 02:13:05;;;;;;;13.48;8.32;;;;;;;;;;5052946;28;20131;-80
2023/03/08 02:15:32;;;;;;;12.02;7.68;;;;;;;;;;5032232;28;20049;-81
2023/03/08 02:17:57;;;;;;;11.90;8.45;;;;;;;;;;5046553;28;20028;-80
2023/03/08 02:20:24;;;;;;;12.23;8.40;;;;;;;;;;5053123;28;20044;-79
2023/03/08 02:22:52;;;;;;;10.25;7.60;;;;;;;;;;5034841;28;20032;-79
2023/03/08 02:25:21;;;;;;;12.68;8.50;;;;;;;;;;5052235;28;20174;-80
2023/03/08 02:27:47;;;;;;;11.68;8.27;;;;;;;;;;5051558;28;20025;-80
2023/03/08 02:30:13;;;;;;;12.20;8.43;;;;;;;;;;5052975;28;20052;-80
2023/03/08 02:32:38;;;;;;;11.82;8.77;;;;;;;;;;5051910;28;20075;-80
2023/03/08 02:35:04;;;;;;;13.85;9.40;;;;;;;;;;5051824;28;20601;-79
2023/03/08 02:37:30;;;;;;;10.73;7.07;;;;;;;;;;5051530;28;20040;-80
2023/03/08 02:39:55;;;;;;;11.57;7.60;;;;;;;;;;5051805;28;20123;-79
2023/03/08 02:42:21;;;;;;;10.55;6.93;;;;;;;;;;5051613;28;20121;-80
2023/03/08 02:44:46;;;;;;;9.85;6.65;;;;;;;;;;5051534;28;20044;-80
2023/03/08 02:47:13;;;;;;;7.95;5.65;;;;;;;;;;5051277;28;20538;-79
2023/03/08 02:49:39;;;;;;;10.30;6.53;;;;;;;;;;5051464;28;20040;-80
2023/03/08 02:52:04;;;;;;;9.63;6.43;;;;;;;;;;5052464;28;20059;-80
2023/03/08 02:54:30;;;;;;;11.60;7.32;;;;;;;;;;5051229;28;20048;-80
2023/03/08 02:56:55;;;;;;;11.55;6.80;;;;;;;;;;5051267;28;20051;-81
2023/03/08 02:59:21;;;;;;;8.27;6.18;;;;;;;;;;5031339;28;20051;-80
2023/03/08 03:01:47;;;;;;;9.13;6.20;;;;;;;;;;5046128;28;20047;-80
2023/03/08 03:04:12;;;;;;;10.05;6.68;;;;;;;;;;5051439;28;20029;-80
2023/03/08 03:06:38;;;;;;;9.50;5.88;;;;;;;;;;5051048;28;20040;-80
2023/03/08 03:09:07;;;;;;;8.40;5.60;;;;;;;;;;5050670;28;20171;-80
2023/03/08 03:11:33;;;;;;;8.48;5.78;;;;;;;;;;5034358;28;20588;-80
2023/03/08 03:14:00;;;;;;;7.60;5.43;;;;;;;;;;5034888;28;20037;-80
2023/03/08 03:16:31;;;;;;;7.90;5.20;;;;;;;;;;5035046;28;20031;-80
2023/03/08 03:18:57;;;;;;;7.32;4.85;;;;;;;;;;5034490;28;20115;-80
2023/03/08 03:21:22;;;;;;;6.88;4.63;;;;;;;;;;5034086;28;20036;-80
2023/03/08 03:23:48;;;;;;;7.28;5.10;;;;;;;;;;5050800;28;20037;-80
2023/03/08 03:26:20;;;;;;;6.90;4.90;;;;;;;;;;5050595;28;20033;-79
2023/03/08 03:28:51;;;;;;;8.30;4.60;;;;;;;;;;5035071;28;20033;-80
2023/03/08 03:31:17;;;;;;;9.20;5.55;;;;;;;;;;5034377;28;20074;-79
2023/03/08 03:33:43;;;;;;;8.65;5.43;;;;;;;;;;5051209;28;20037;-81
2023/03/08 03:36:09;;;;;;;9.35;6.15;;;;;;;;;;5017383;28;20021;-81
2023/03/08 03:38:35;;;;;;;;;;;;;;;;;;5051255;28;20399;-81
2023/03/08 03:41:07;;;;;;;8.40;6.10;;;;;;;;;;5050325;28;19909;-81
2023/03/08 03:43:33;;;;;;;11.15;7.15;;;;;;;;;;5034292;28;20036;-81
2023/03/08 03:45:59;;;;;;;10.02;7.78;;;;;;;;;;5033851;28;20016;-81
2023/03/08 03:48:26;;;;;;;9.90;6.82;;;;;;;;;;5050803;28;20135;-81
2023/03/08 03:50:56;;;;;;;10.35;7.78;;;;;;;;;;5050594;28;20120;-80
2023/03/08 03:53:22;;;;;;;10.32;7.50;;;;;;;;;;5054112;28;20048;-80
2023/03/08 03:55:47;;;;;;;;;;;;;;;;;;5052805;28;20024;-81
2023/03/08 03:58:13;;;;;;;9.57;7.18;;;;;;;;;;5052982;28;20441;-81
2023/03/08 04:00:38;;;;;;;9.57;6.78;;;;;;;;;;5047468;28;20403;-81
2023/03/08 04:03:14;;;;;;;8.43;5.97;;;;;;;;;;5032021;28;20041;-80
2023/03/08 04:05:41;;;;;;;11.95;6.85;;;;;;;;;;5053372;28;20044;-81
2023/03/08 04:08:07;;;;;;;10.63;6.75;;;;;;;;;;5039773;28;20025;-81
2023/03/08 04:10:34;;;;;;;12.45;7.20;;;;;;;;;;5037184;28;20074;-81
2023/03/08 04:13:00;;;;;;;10.15;7.53;;;;;;;;;;5053380;28;20024;-80
2023/03/08 04:15:26;;;;;;;14.43;8.27;;;;;;;;;;5053643;28;20036;-80
2023/03/08 04:17:51;;;;;;;;;;;;;;;;;;5027556;28;20049;-80
2023/03/08 04:20:19;;;;;;;11.70;7.50;;;;;;;;;;5055603;28;19912;-80
2023/03/08 04:22:52;;;;;;;9.63;6.93;;;;;;;;;;5057051;28;20036;-80
2023/03/08 04:25:24;;;;;;;11.98;6.82;;;;;;;;;;5041655;28;20032;-81
2023/03/08 04:27:56;;;;;;;8.30;6.28;;;;;;;;;;5056675;28;20094;-81
2023/03/08 04:30:21;;;;;;;11.30;6.93;;;;;;;;;;5047014;28;20048;-81
2023/03/08 04:32:47;;;;;;;9.70;6.90;;;;;;;;;;5037561;28;20063;-82
2023/03/08 04:35:13;;;;;;;8.00;5.90;;;;;;;;;;5037422;28;20123;-80
2023/03/08 04:37:42;;;;;;;8.70;6.25;;;;;;;;;;5021663;28;20028;-82
2023/03/08 04:40:11;;;;;;;9.98;6.50;;;;;;;;;;5052041;28;20120;-79
2023/03/08 04:42:44;;;;;;;9.43;6.53;;;;;;;;;;5027679;28;20033;-81
2023/03/08 04:45:13;;;;;;;11.60;6.82;;;;;;;;;;5021404;28;20044;-79
2023/03/08 04:47:39;;;;;;;;;;;;;;;;;;5024222;28;20419;-82
2023/03/08 04:50:05;;;;;;;8.68;6.10;;;;;;;;;;5026910;28;20047;-83
2023/03/08 04:52:32;;;;;;;9.30;6.13;;;;;;;;;;5031824;28;20415;-82
2023/03/08 04:54:57;;;;;;;8.60;6.25;;;;;;;;;;5021629;28;20059;-83
2023/03/08 04:57:25;;;;;;;8.38;5.85;;;;;;;;;;5026425;28;20033;-82
2023/03/08 04:59:53;;;;;;;8.35;6.18;;;;;;;;;;5039790;28;20028;-83
2023/03/08 05:02:20;;;;;;;10.45;6.93;;;;;;;;;;5036786;28;20054;-82
2023/03/08 05:04:46;;;;;;;15.13;7.05;;;;;;;;;;5020706;28;20128;-82
2023/03/08 05:07:12;;;;;;;11.68;7.40;;;;;;;;;;5055002;28;20460;-82
2023/03/08 05:09:37;;;;;;;;;;;;;;;;;;5042651;28;20123;-81
2023/03/08 05:12:03;;;;;;;9.68;6.00;;;;;;;;;;5036718;28;19951;-80
2023/03/08 05:14:40;;;;;;;9.95;6.47;;;;;;;;;;5021745;28;20041;-80
2023/03/08 05:17:05;;;;;;;9.73;6.57;;;;;;;;;;5003172;28;20021;-82
2023/03/08 05:19:33;;;;;;;9.23;6.93;;;;;;;;;;5037271;28;20029;-80
2023/03/08 05:21:59;;;;;;;8.80;6.22;;;;;;;;;;5036194;28;20040;-82
2023/03/08 05:24:26;;;;;;;11.82;7.63;;;;;;;;;;5034475;28;20399;-79
2023/03/08 05:26:52;;;;;;;9.23;6.50;;;;;;;;;;5031196;28;20074;-80
2023/03/08 05:29:18;;;;;;;12.27;6.82;;;;;;;;;;5034368;28;20021;-80
2023/03/08 05:31:45;;;;;;;11.23;7.30;;;;;;;;;;5035566;28;20040;-81
2023/03/08 05:34:12;;;;;;;10.55;7.35;;;;;;;;;;5015367;28;20033;-81
2023/03/08 05:36:41;;;;;;;13.38;8.00;;;;;;;;;;5026617;28;20033;-82
2023/03/08 05:39:07;;;;;;;12.57;8.02;;;;;;;;;;5035391;28;20479;-80
2023/03/08 05:41:40;;;;;;;9.82;7.70;;;;;;;;;;5035682;28;20431;-81
2023/03/08 05:44:06;;;;;;;10.93;7.80;;;;;;;;;;5035436;28;20029;-81
2023/03/08 05:46:33;;;;;;;10.73;8.13;;;;;;;;;;5034905;28;20021;-80
2023/03/08 05:49:01;;;;;;;11.52;7.72;;;;;;;;;;5019361;28;20169;-81
2023/03/08 05:51:29;;;;;;;13.75;8.77;;;;;;;;;;5035379;28;20025;-83
2023/03/08 05:53:55;;;;;;;12.65;9.27;;;;;;;;;;5035787;28;20503;-81
2023/03/08 05:56:21;;;;;;;11.85;8.60;;;;;;;;;;5035716;28;20040;-82
2023/03/08 05:58:57;;;;;;;;;;;;;;;;;;5036101;28;20040;-81
2023/03/08 06:01:25;;;;;;;15.18;9.82;;;;;;;;;;5035597;28;19920;-81
2023/03/08 06:03:55;;;;;;;14.88;10.00;;;;;;;;;;5035821;28;20021;-82
2023/03/08 06:06:24;;;;;;;13.98;8.93;;;;;;;;;;5035927;28;20043;-82
2023/03/08 06:08:49;;;;;;;;;;;;;;;;;;5019901;28;20033;-79
2023/03/08 06:11:14;;;;;;;16.70;10.63;;;;;;;;;;5053136;28;19913;-81
2023/03/08 06:13:42;;;;;;;15.32;9.32;;;;;;;;;;5035762;28;20040;-82
2023/03/08 06:16:08;;;;;;;13.98;9.82;;;;;;;;;;5018649;28;20033;-81
2023/03/08 06:18:34;;;;;;;14.20;9.90;;;;;;;;;;5035136;28;20036;-81
2023/03/08 06:21:06;;;;;;;14.38;9.75;;;;;;;;;;5035618;28;20037;-81
2023/03/08 06:23:34;;;;;;;13.45;8.57;;;;;;;;;;5035307;28;20075;-80
2023/03/08 06:25:59;;;;;;;13.23;9.30;;;;;;;;;;5035565;28;20021;-80
2023/03/08 06:28:25;;;;;;;;;;;;;;;;;;5018383;28;20045;-79
2023/03/08 06:30:51;;;;;;;13.05;8.88;;;;;;;;;;5034199;28;19908;-79
2023/03/08 06:33:21;;;;;;;14.73;10.15;;;;;;;;;;5018206;28;20033;-79
2023/03/08 06:35:56;;;;;;;17.63;13.93;;;;;;;;;;5052167;28;20396;-80
2023/03/08 06:38:23;;;;;;;17.33;13.32;;;;;;;;;;5034071;28;20033;-77
2023/03/08 06:40:49;;;;;;;17.63;13.43;;;;;;;;;;5034422;28;20403;-78
2023/03/08 06:43:14;;;;;;;16.00;12.30;;;;;;;;;;5051267;28;20047;-78
2023/03/08 06:45:40;;;;;;;15.77;12.13;;;;;;;;;;5018027;28;20127;-78
2023/03/08 06:48:06;;;;;;;16.85;13.43;;;;;;;;;;5033797;28;20060;-80
2023/03/08 06:50:31;;;;;;;16.48;11.50;;;;;;;;;;5017745;28;20534;-79
2023/03/08 06:52:57;;;;;;;17.45;11.25;;;;;;;;;;5033620;28;20029;-80
2023/03/08 06:55:36;;;;;;;17.27;11.25;;;;;;;;;;5047968;28;20029;-80
2023/03/08 06:58:01;;;;;;;18.40;11.77;;;;;;;;;;5033044;28;20442;-80
2023/03/08 07:00:27;;;;;;;19.23;11.88;;;;;;;;;;5014252;28;20063;-78
2023/03/08 07:02:53;;;;;;;16.35;10.75;;;;;;;;;;5019285;28;20441;-80
2023/03/08 07:05:19;;;;;;;16.85;10.93;;;;;;;;;;5042821;28;20032;-79
2023/03/08 07:07:44;;;;;;;15.30;10.35;;;;;;;;;;5043837;28;20052;-80
2023/03/08 07:10:10;;;;;;;15.45;10.30;;;;;;;;;;5057690;28;20032;-77
2023/03/08 07:12:39;;;;;;;14.27;11.00;;;;;;;;;;5059463;28;20123;-79
2023/03/08 07:15:07;;;;;;;18.05;11.38;;;;;;;;;;5045443;28;20105;-78
2023/03/08 07:17:34;;;;;;;16.25;11.13;;;;;;;;;;5040983;28;20067;-77
2023/03/08 07:20:00;;;;;;;14.25;10.35;;;;;;;;;;5057775;28;20082;-77
2023/03/08 07:22:25;;;;;;;15.95;10.52;;;;;;;;;;5046102;28;20028;-78
2023/03/08 07:24:50;;;;;;;16.08;11.30;;;;;;;;;;5060577;28;20709;-78
2023/03/08 07:27:16;;;;;;;17.92;11.48;;;;;;;;;;5060627;28;20579;-76
2023/03/08 07:29:41;;;;;;;16.63;10.77;;;;;;;;;;5014133;28;20399;-76
2023/03/08 07:32:07;;;;;;;15.88;10.38;;;;;;;;;;5066895;28;20044;-78
2023/03/08 07:34:36;;;;;;;25.17;16.75;;;;;;;;;;5037413;28;20040;-81
2023/03/08 07:37:02;;;;;;;17.83;11.60;;;;;;;;;;5071523;28;20115;-81
2023/03/08 07:39:27;;;;;;;17.05;10.13;;;;;;;;;;5071710;28;20446;-83
2023/03/08 07:41:53;;;;;;;14.77;10.32;;;;;;;;;;5071949;28;20044;-80
2023/03/08 07:44:18;;;;;;;15.18;11.27;;;;;;;;;;5063755;28;20061;-82
2023/03/08 07:46:44;;;;;;;16.73;11.48;;;;;;;;;;5040664;28;20384;-80
2023/03/08 07:49:10;;;;;;;15.98;11.60;;;;;;;;;;5071888;28;20029;-80
2023/03/08 07:51:36;;;;;;;15.43;11.13;;;;;;;;;;5064210;28;20038;-81
2023/03/08 07:54:01;;;;;;;15.95;11.02;;;;;;;;;;5028893;28;20665;-81
2023/03/08 07:56:27;;;;;;;15.32;10.80;;;;;;;;;;5058526;28;20402;-81
2023/03/08 07:58:54;;;;;;;15.05;10.52;;;;;;;;;;5058670;28;20490;-80
2023/03/08 08:01:20;;;;;;;16.63;11.93;;;;;;;;;;5076245;28;20036;-81
2023/03/08 08:03:45;;;;;;;17.25;10.55;;;;;;;;;;5076273;28;20043;-81
2023/03/08 08:06:11;;;;;;;16.38;10.68;;;;;;;;;;5024519;28;20434;-81
2023/03/08 08:08:36;;;;;;;15.98;10.95;;;;;;;;;;5046441;28;20020;-81
2023/03/08 08:11:08;;;;;;;17.33;10.68;;;;;;;;;;5058507;28;20071;-82
2023/03/08 08:13:33;;;;;;;16.00;10.88;;;;;;;;;;5041460;28;20040;-82
2023/03/08 08:15:59;;;;;;;17.40;11.30;;;;;;;;;;5041253;28;20028;-82
2023/03/08 08:18:25;;;;;;;17.65;11.10;;;;;;;;;;5041480;28;20674;-80
2023/03/08 08:20:58;;;;;;;18.17;10.43;;;;;;;;;;5040718;28;20056;-79
2023/03/08 08:23:23;;;;;;;15.32;11.27;;;;;;;;;;5074920;28;20082;-81
2023/03/08 08:25:49;;;;;;;15.15;10.60;;;;;;;;;;5040910;28;20025;-81
2023/03/08 08:28:14;;;;;;;16.08;11.15;;;;;;;;;;5057547;28;20028;-81
2023/03/08 08:30:40;;;;;;;16.95;10.85;;;;;;;;;;5075905;28;20033;-81
2023/03/08 08:33:05;;;;;;;14.98;11.15;;;;;;;;;;5057535;28;20036;-81
2023/03/08 08:35:31;;;;;;;17.40;11.82;;;;;;;;;;5057286;28;20036;-80
2023/03/08 08:37:56;;;;;;;17.33;10.88;;;;;;;;;;5075202;28;20388;-80
2023/03/08 08:40:22;;;;;;;15.13;10.07;;;;;;;;;;5075246;28;20058;-81
2023/03/08 08:42:47;;;;;;;16.08;11.20;;;;;;;;;;5057225;28;20143;-81
2023/03/08 08:45:13;;;;;;;15.13;10.65;;;;;;;;;;5040482;28;20046;-80
2023/03/08 08:47:38;;;;;;;14.73;10.55;;;;;;;;;;5057297;28;20446;-81
2023/03/08 08:50:04;;;;;;;13.13;8.75;;;;;;;;;;5058653;28;20062;-79
2023/03/08 08:52:29;;;;;;;17.90;11.73;;;;;;;;;;5039730;28;20028;-80
2023/03/08 08:54:56;;;;;;;16.90;11.90;;;;;;;;;;5056639;28;20045;-89
2023/03/08 08:57:22;;;;;;;15.80;11.50;;;;;;;;;;5040191;28;20043;-81
2023/03/08 08:59:47;;;;;;;15.73;10.52;;;;;;;;;;5074845;28;20032;-81
2023/03/08 09:02:13;;;;;;;18.80;12.45;;;;;;;;;;5073962;28;20031;-80
2023/03/08 09:04:38;;;;;;;17.75;12.75;;;;;;;;;;5040549;28;20033;-80
2023/03/08 09:07:06;;;;;;;17.10;12.27;;;;;;;;;;5055601;28;20025;-80
2023/03/08 09:09:31;;;;;;;18.63;11.88;;;;;;;;;;5037095;28;20059;-79
2023/03/08 09:11:58;;;;;;;16.48;11.95;;;;;;;;;;5045525;28;20059;-79
2023/03/08 09:14:24;;;;;;;18.33;13.30;;;;;;;;;;5026132;28;20025;-79
2023/03/08 09:16:51;;;;;;;17.17;11.55;;;;;;;;;;5037558;28;20043;-81
2023/03/08 09:19:16;;;;;;;17.35;12.52;;;;;;;;;;5074249;28;20080;-79
2023/03/08 09:21:42;;;;;;;19.83;12.32;;;;;;;;;;5055488;28;20075;-82
2023/03/08 09:24:09;;;;;;;18.27;12.70;;;;;;;;;;5073983;28;20032;-80
2023/03/08 09:26:35;;;;;;;18.50;12.65;;;;;;;;;;5039573;28;20502;-81
2023/03/08 09:29:04;;;;;;;19.45;13.02;;;;;;;;;;5056374;28;20174;-81
2023/03/08 09:31:29;;;;;;;18.02;12.75;;;;;;;;;;5039408;28;20039;-79
2023/03/08 09:33:55;;;;;;;17.67;12.38;;;;;;;;;;5073976;28;20387;-78
2023/03/08 09:36:21;;;;;;;16.50;12.98;;;;;;;;;;5055672;28;20039;-80
2023/03/08 09:38:47;;;;;;;16.25;11.13;;;;;;;;;;5055215;28;20037;-81
2023/03/08 09:41:12;;;;;;;16.70;12.82;;;;;;;;;;5054892;28;20380;-80
2023/03/08 09:43:46;;;;;;;17.63;12.75;;;;;;;;;;5068494;28;20039;-80
2023/03/08 09:46:13;;;;;;;17.17;12.13;;;;;;;;;;5065888;28;20459;-80
2023/03/08 09:48:38;;;;;;;19.15;12.15;;;;;;;;;;5055246;28;20056;-80
2023/03/08 09:51:05;;;;;;;17.48;11.95;;;;;;;;;;5073505;28;20059;-81
2023/03/08 09:53:41;;;;;;;18.05;13.15;;;;;;;;;;5017469;28;20135;-80
2023/03/08 09:56:28;;;;;;;17.42;12.20;;;;;;;;;;5036117;28;20068;-83
2023/03/08 09:58:53;;;;;;;16.73;12.43;;;;;;;;;;5036221;28;20056;-82
2023/03/08 10:01:40;;;;;;;16.45;11.88;;;;;;;;;;5054555;28;20021;-82
2023/03/08 10:04:21;;;;;;;19.17;12.02;;;;;;;;;;5023787;28;20087;-83
2023/03/08 10:06:53;;;;;;;18.38;12.23;;;;;;;;;;5031120;28;20035;-83
2023/03/08 10:09:21;;;;;;;20.13;15.05;;;;;;;;;;5036171;28;20089;-84
2023/03/08 10:12:05;;;;;;;19.88;14.85;;;;;;;;;;5022085;28;20031;-81
2023/03/08 10:14:32;;;;;;;20.08;14.10;;;;;;;;;;5034845;28;20376;-82
2023/03/08 10:16:59;;;;;;;18.83;14.20;;;;;;;;;;5017049;28;20369;-82
2023/03/08 10:19:34;;;;;;;19.73;14.65;;;;;;;;;;5015077;28;20183;-81
2023/03/08 10:22:02;;;;;;;23.08;15.00;;;;;;;;;;5022541;28;20063;-81
2023/03/08 10:24:40;;;;;;;20.17;15.70;;;;;;;;;;5038301;28;20159;-82
2023/03/08 10:27:15;;;;;;;19.65;14.43;;;;;;;;;;5035466;28;20056;-83
2023/03/08 10:29:46;;;;;;;20.10;13.68;;;;;;;;;;5035865;28;20029;-81
2023/03/08 10:32:12;;;;;;;22.55;15.02;;;;;;;;;;5034673;28;20068;-80
2023/03/08 10:34:37;;;;;;;19.35;14.10;;;;;;;;;;5034541;28;20064;-80
2023/03/08 10:37:03;;;;;;;17.23;13.05;;;;;;;;;;5052639;28;20037;-79
2023/03/08 10:39:29;;;;;;;18.30;14.07;;;;;;;;;;5034601;28;20033;-80
2023/03/08 10:41:55;;;;;;;19.67;14.25;;;;;;;;;;5034355;28;20029;-80
2023/03/08 10:44:32;;;;;;;18.05;13.45;;;;;;;;;;5052013;28;20112;-80
2023/03/08 10:46:58;;;;;;;20.65;14.30;;;;;;;;;;5034477;28;20090;-80
2023/03/08 10:49:23;;;;;;;18.75;13.82;;;;;;;;;;5034717;28;20502;-80
2023/03/08 10:51:52;;;;;;;18.10;13.88;;;;;;;;;;5035142;28;20020;-80
2023/03/08 10:54:18;;;;;;;19.30;13.68;;;;;;;;;;5042523;28;20084;-81
2023/03/08 10:56:45;;;;;;;17.70;14.23;;;;;;;;;;5050956;28;20415;-81
2023/03/08 10:59:22;;;;;;;18.70;14.13;;;;;;;;;;5025693;28;20048;-81
2023/03/08 11:01:51;;;;;;;18.83;13.88;;;;;;;;;;5049892;28;20060;-80
2023/03/08 11:04:20;;;;;;;18.38;13.75;;;;;;;;;;5051518;28;20027;-81
2023/03/08 11:06:45;;;;;;;18.23;14.15;;;;;;;;;;5052352;28;20032;-79
2023/03/08 11:09:26;;;;;;;18.75;14.13;;;;;;;;;;5050824;28;20020;-80
2023/03/08 11:11:52;;;;;;;18.15;13.50;;;;;;;;;;5051284;28;20617;-81
2023/03/08 11:14:17;;;;;;;19.50;14.57;;;;;;;;;;5034133;28;20027;-79
2023/03/08 11:17:02;;;;;;;19.45;14.57;;;;;;;;;;5030873;28;20407;-80
2023/03/08 11:19:33;;;;;;;16.52;13.00;;;;;;;;;;5039622;28;20037;-80
2023/03/08 11:22:14;;;;;;;18.33;13.55;;;;;;;;;;5050462;28;20426;-81
2023/03/08 11:24:55;;;;;;;18.65;13.60;;;;;;;;;;5050898;28;20406;-79
2023/03/08 11:27:39;;;;;;;21.20;13.25;;;;;;;;;;5018375;28;20057;-80
2023/03/08 11:30:20;;;;;;;19.88;14.48;;;;;;;;;;5051662;28;20443;-79
2023/03/08 11:32:55;;;;;;;17.52;12.93;;;;;;;;;;5051847;28;20029;-79
2023/03/08 11:35:23;;;;;;;16.48;12.32;;;;;;;;;;5037181;28;20495;-81
2023/03/08 11:37:54;;;;;;;18.70;14.20;;;;;;;;;;5051616;28;20399;-80
2023/03/08 11:40:21;;;;;;;16.23;12.18;;;;;;;;;;5020932;28;20029;-80
2023/03/08 11:42:57;;;;;;;17.00;12.75;;;;;;;;;;5050135;28;20021;-80
2023/03/08 11:45:42;;;;;;;17.17;12.85;;;;;;;;;;5033530;28;20029;-79
2023/03/08 11:48:27;;;;;;;17.92;12.55;;;;;;;;;;5051412;28;20115;-79
2023/03/08 11:50:56;;;;;;;19.13;13.27;;;;;;;;;;5051561;28;20041;-80
2023/03/08 11:53:22;;;;;;;17.60;12.75;;;;;;;;;;5050045;28;20580;-80
2023/03/08 11:55:47;;;;;;;17.63;12.93;;;;;;;;;;5049659;28;20033;-79
2023/03/08 11:58:19;;;;;;;17.55;12.82;;;;;;;;;;5050715;28;20398;-81
2023/03/08 12:00:45;;;;;;;16.40;12.95;;;;;;;;;;5051989;28;20099;-80
2023/03/08 12:03:18;;;;;;;19.52;12.38;;;;;;;;;;5050563;28;20029;-80
2023/03/08 12:05:48;;;;;;;17.30;12.90;;;;;;;;;;5029682;28;20041;-80
2023/03/08 12:08:24;;;;;;;16.40;12.27;;;;;;;;;;5032034;28;20049;-80
2023/03/08 12:10:57;;;;;;;19.67;12.80;;;;;;;;;;5034448;28;20068;-81
2023/03/08 12:13:24;;;;;;;15.85;11.68;;;;;;;;;;5051545;28;20033;-80
2023/03/08 12:15:54;;;;;;;18.92;12.50;;;;;;;;;;5034165;28;20083;-80
2023/03/08 12:18:36;;;;;;;20.50;12.32;;;;;;;;;;5051778;28;20099;-79
2023/03/08 12:21:25;;;;;;;31.83;15.13;;;;;;;;;;5050527;28;20090;-80
2023/03/08 12:23:54;;;;;;;24.48;14.02;;;;;;;;;;5041663;28;20091;-80
2023/03/08 12:26:21;;;;;;;19.80;13.68;;;;;;;;;;5050060;28;20472;-79
2023/03/08 12:28:52;;;;;;;18.60;13.68;;;;;;;;;;5050726;28;20033;-81
2023/03/08 12:31:24;;;;;;;18.00;12.95;;;;;;;;;;5033353;28;20043;-79
2023/03/08 12:33:50;;;;;;;17.00;12.38;;;;;;;;;;5033687;28;20524;-80
2023/03/08 12:36:17;;;;;;;17.90;13.45;;;;;;;;;;5033209;28;20024;-80
2023/03/08 12:38:45;;;;;;;16.88;12.93;;;;;;;;;;5049967;28;20033;-80
2023/03/08 12:41:37;;;;;;;17.15;13.38;;;;;;;;;;5051672;28;20017;-80
2023/03/08 12:44:06;;;;;;;16.33;12.75;;;;;;;;;;5050112;28;20132;-80
2023/03/08 12:46:45;;;;;;;16.55;13.10;;;;;;;;;;5053872;28;20389;-80
2023/03/08 12:49:25;;;;;;;16.58;13.07;;;;;;;;;;5053317;28;20037;-80
2023/03/08 12:51:55;;;;;;;17.55;12.98;;;;;;;;;;5037233;28;20044;-79
2023/03/08 12:54:20;;;;;;;16.08;13.52;;;;;;;;;;5056882;28;20135;-78
2023/03/08 12:56:49;;;;;;;15.75;11.90;;;;;;;;;;5074731;28;20052;-81
2023/03/08 12:59:15;;;;;;;16.70;13.02;;;;;;;;;;5057477;28;20072;-79
2023/03/08 13:01:43;;;;;;;16.30;12.27;;;;;;;;;;5056628;28;20052;-81
2023/03/08 13:04:27;;;;;;;16.50;13.15;;;;;;;;;;5038176;28;20035;-80
2023/03/08 13:06:53;;;;;;;16.95;13.40;;;;;;;;;;5058431;28;20024;-80
2023/03/08 13:09:24;;;;;;;18.00;13.27;;;;;;;;;;5072920;28;20028;-78
2023/03/08 13:11:52;;;;;;;17.85;13.20;;;;;;;;;;5074063;28;20036;-79
2023/03/08 13:14:22;;;;;;;18.75;13.70;;;;;;;;;;5039773;28;20111;-78
2023/03/08 13:16:47;;;;;;;16.35;13.32;;;;;;;;;;5055486;28;20036;-77
2023/03/08 13:19:13;;;;;;;17.60;12.98;;;;;;;;;;5039529;28;20024;-78
2023/03/08 13:21:51;;;;;;;17.73;13.35;;;;;;;;;;5056609;28;20036;-81
2023/03/08 13:24:36;;;;;;;15.90;11.15;;;;;;;;;;5050564;28;20028;-78
2023/03/08 13:27:01;;;;;;;16.58;11.45;;;;;;;;;;5036599;28;20036;-78
2023/03/08 13:29:27;;;;;;;17.15;11.95;;;;;;;;;;5055327;28;20033;-77
2023/03/08 13:31:53;;;;;;;;;;;;;;;;;;5054338;28;20100;-78
2023/03/08 13:34:28;;;;;;;19.42;13.27;;;;;;;;;;5068911;28;19919;-78
2023/03/08 13:36:54;;;;;;;18.27;12.75;;;;;;;;;;5068955;28;20037;-79
2023/03/08 13:39:21;;;;;;;18.52;13.13;;;;;;;;;;5053350;28;20104;-78
2023/03/08 13:41:46;;;;;;;17.77;12.23;;;;;;;;;;5053923;28;20039;-78
2023/03/08 13:44:16;;;;;;;19.40;13.70;;;;;;;;;;5039584;28;20028;-78
2023/03/08 13:46:41;;;;;;;18.20;13.15;;;;;;;;;;5036123;28;20040;-79
2023/03/08 13:49:16;;;;;;;19.77;13.55;;;;;;;;;;5042937;28;20031;-78
2023/03/08 13:51:42;;;;;;;16.92;11.82;;;;;;;;;;5065351;28;20032;-78
2023/03/08 13:54:14;;;;;;;21.45;14.63;;;;;;;;;;5047192;28;20048;-78
2023/03/08 13:56:40;;;;;;;20.23;14.15;;;;;;;;;;5040369;28;20131;-78
2023/03/08 13:59:05;;;;;;;22.05;14.50;;;;;;;;;;5063823;28;20582;-79
2023/03/08 14:01:31;;;;;;;21.77;15.23;;;;;;;;;;5065245;28;20028;-78
2023/03/08 14:03:58;;;;;;;21.50;14.77;;;;;;;;;;5071989;28;20016;-79
2023/03/08 14:06:28;;;;;;;21.60;15.02;;;;;;;;;;5054131;28;20036;-78
2023/03/08 14:08:57;;;;;;;21.52;15.82;;;;;;;;;;5071099;28;20033;-79
2023/03/08 14:11:29;;;;;;;27.05;15.52;;;;;;;;;;5053329;28;20395;-77
2023/03/08 14:13:55;;;;;;;25.92;16.27;;;;;;;;;;5053586;28;20090;-77
2023/03/08 14:16:23;;;;;;;22.42;15.32;;;;;;;;;;5054551;28;20054;-79
2023/03/08 14:18:49;;;;;;;23.30;15.30;;;;;;;;;;5071808;28;20094;-77
2023/03/08 14:21:15;;;;;;;23.45;16.17;;;;;;;;;;5052255;28;20012;-77
2023/03/08 14:23:48;;;;;;;22.58;15.40;;;;;;;;;;5070427;28;20059;-78
2023/03/08 14:26:26;;;;;;;23.75;15.80;;;;;;;;;;5037006;28;20025;-77
2023/03/08 14:29:02;;;;;;;23.48;16.13;;;;;;;;;;5069911;28;20043;-77
2023/03/08 14:31:28;;;;;;;23.92;15.73;;;;;;;;;;5068982;28;20036;-79